Airport View

Enter AWOS ICAO identifier for current METAR.

ex. KFNL

KAVX 112151Z AUTO 26009KT 10SM CLR 14/08 A3017 RMK AO2 SLP211 T01440083

11 Dec 2019 22:33

Frequency: 120.675

Phone: 310-510-9641

Other Area AWOS: KTOA - KNUC - KLGB

TAF KLGB 111748Z 1118/1218 VRB03KT P6SM SCT250 FM112100 20006KT P6SM SCT250 FM120000 VRB03KT P6SM BKN250 FM121000 VRB03KT P6SM VCFG FEW001 BKN250 FM121600 VRB03KT P6SM BKN250